Floresta, Brazil
Current Conditions -  °F | °C
As of 7:00 PM on Sunday 23 Nov 2014 (Local Time) from SBJU Reporting Station
Few Clouds Few Clouds  
Wind Chill: 90°   Ceiling: Unl
Heat Index: 90°   Visibility: 6mi
Dew Point: 63°   Wind: 0mph
Humidity: 40%   Direction: NA
Pressure: 29.94"   Gusts: NA
Location:  8.6°S, 38.57°W
Report Text: SBJU 232200Z 00000KT 9999 FEW020 32/17 Q1014
Loading
Personal Weather Stations






























Interactive Weather Map New forecast layout! Learn more

10-Day Weather Forecast

Advertisements
Track Severe Weather on mobile